sensor_id;sensor_type;location;lat;lon;timestamp;P1;durP1;ratioP1;P2;durP2;ratioP2
76463;SDS011;65301;46.666;20.110;2022-11-21T00:00:15;43.83;;;22.42;;
76463;SDS011;65301;46.666;20.110;2022-11-21T00:03:17;38.60;;;19.00;;
76463;SDS011;65301;46.666;20.110;2022-11-21T00:06:19;43.20;;;19.93;;
76463;SDS011;65301;46.666;20.110;2022-11-21T00:09:21;45.00;;;20.10;;
76463;SDS011;65301;46.666;20.110;2022-11-21T00:12:23;43.30;;;20.38;;
76463;SDS011;65301;46.666;20.110;2022-11-21T00:15:25;47.58;;;20.95;;
76463;SDS011;65301;46.666;20.110;2022-11-21T00:18:26;40.58;;;19.00;;
76463;SDS011;65301;46.666;20.110;2022-11-21T00:21:28;44.70;;;21.20;;
76463;SDS011;65301;46.666;20.110;2022-11-21T00:24:30;42.07;;;19.13;;
76463;SDS011;65301;46.666;20.110;2022-11-21T00:27:31;39.33;;;20.05;;
76463;SDS011;65301;46.666;20.110;2022-11-21T00:30:33;47.50;;;20.13;;
76463;SDS011;65301;46.666;20.110;2022-11-21T00:33:35;42.08;;;20.35;;
76463;SDS011;65301;46.666;20.110;2022-11-21T00:36:39;44.43;;;20.37;;
76463;SDS011;65301;46.666;20.110;2022-11-21T00:39:41;43.30;;;20.40;;
76463;SDS011;65301;46.666;20.110;2022-11-21T00:42:42;42.72;;;20.88;;
76463;SDS011;65301;46.666;20.110;2022-11-21T00:45:44;42.08;;;19.52;;
76463;SDS011;65301;46.666;20.110;2022-11-21T00:48:46;42.35;;;20.75;;
76463;SDS011;65301;46.666;20.110;2022-11-21T00:51:48;43.27;;;20.43;;
76463;SDS011;65301;46.666;20.110;2022-11-21T00:54:49;41.17;;;20.37;;
76463;SDS011;65301;46.666;20.110;2022-11-21T00:57:51;39.30;;;19.58;;
76463;SDS011;65301;46.666;20.110;2022-11-21T01:01:00;42.45;;;20.95;;
76463;SDS011;65301;46.666;20.110;2022-11-21T01:04:03;43.03;;;19.40;;
76463;SDS011;65301;46.666;20.110;2022-11-21T01:07:05;37.67;;;18.97;;
76463;SDS011;65301;46.666;20.110;2022-11-21T01:10:07;40.57;;;19.57;;
76463;SDS011;65301;46.666;20.110;2022-11-21T01:13:09;41.92;;;18.88;;
76463;SDS011;65301;46.666;20.110;2022-11-21T01:16:20;40.30;;;18.95;;
76463;SDS011;65301;46.666;20.110;2022-11-21T01:19:24;39.15;;;18.35;;
76463;SDS011;65301;46.666;20.110;2022-11-21T01:22:25;36.23;;;18.27;;
76463;SDS011;65301;46.666;20.110;2022-11-21T01:25:27;36.47;;;17.90;;
76463;SDS011;65301;46.666;20.110;2022-11-21T01:28:29;40.22;;;18.30;;
76463;SDS011;65301;46.666;20.110;2022-11-21T01:31:31;41.00;;;18.60;;
76463;SDS011;65301;46.666;20.110;2022-11-21T01:34:33;43.33;;;20.27;;
76463;SDS011;65301;46.666;20.110;2022-11-21T01:37:34;38.53;;;18.97;;
76463;SDS011;65301;46.666;20.110;2022-11-21T01:40:37;38.53;;;18.20;;
76463;SDS011;65301;46.666;20.110;2022-11-21T01:43:40;34.78;;;17.45;;
76463;SDS011;65301;46.666;20.110;2022-11-21T01:46:41;39.53;;;17.42;;
76463;SDS011;65301;46.666;20.110;2022-11-21T01:49:44;41.10;;;18.98;;
76463;SDS011;65301;46.666;20.110;2022-11-21T01:52:47;42.43;;;18.10;;
76463;SDS011;65301;46.666;20.110;2022-11-21T01:55:48;35.77;;;17.77;;
76463;SDS011;65301;46.666;20.110;2022-11-21T01:58:51;38.00;;;17.08;;
76463;SDS011;65301;46.666;20.110;2022-11-21T02:01:57;37.60;;;18.05;;
76463;SDS011;65301;46.666;20.110;2022-11-21T02:05:03;37.88;;;17.98;;
76463;SDS011;65301;46.666;20.110;2022-11-21T02:08:10;33.63;;;17.13;;
76463;SDS011;65301;46.666;20.110;2022-11-21T02:11:31;37.97;;;17.43;;
76463;SDS011;65301;46.666;20.110;2022-11-21T02:14:38;34.92;;;17.70;;
76463;SDS011;65301;46.666;20.110;2022-11-21T02:17:42;36.53;;;17.48;;
76463;SDS011;65301;46.666;20.110;2022-11-21T02:20:45;37.03;;;17.48;;
76463;SDS011;65301;46.666;20.110;2022-11-21T02:23:58;33.00;;;16.80;;
76463;SDS011;65301;46.666;20.110;2022-11-21T02:27:04;36.73;;;17.47;;
76463;SDS011;65301;46.666;20.110;2022-11-21T02:30:06;39.47;;;17.98;;
76463;SDS011;65301;46.666;20.110;2022-11-21T02:33:10;37.70;;;18.23;;
76463;SDS011;65301;46.666;20.110;2022-11-21T02:39:47;41.40;;;18.20;;
76463;SDS011;65301;46.666;20.110;2022-11-21T02:43:09;34.37;;;16.87;;
76463;SDS011;65301;46.666;20.110;2022-11-21T02:46:17;36.75;;;17.27;;
76463;SDS011;65301;46.666;20.110;2022-11-21T02:49:29;35.28;;;18.00;;
76463;SDS011;65301;46.666;20.110;2022-11-21T02:52:43;43.13;;;18.67;;
76463;SDS011;65301;46.666;20.110;2022-11-21T02:55:44;38.70;;;17.87;;
76463;SDS011;65301;46.666;20.110;2022-11-21T02:58:46;33.70;;;15.93;;
76463;SDS011;65301;46.666;20.110;2022-11-21T03:01:48;36.83;;;17.70;;
76463;SDS011;65301;46.666;20.110;2022-11-21T03:04:50;38.47;;;18.67;;
76463;SDS011;65301;46.666;20.110;2022-11-21T03:07:51;32.50;;;16.48;;
76463;SDS011;65301;46.666;20.110;2022-11-21T03:10:53;37.17;;;17.00;;
76463;SDS011;65301;46.666;20.110;2022-11-21T03:13:55;36.77;;;16.80;;
76463;SDS011;65301;46.666;20.110;2022-11-21T03:16:56;34.47;;;16.55;;
76463;SDS011;65301;46.666;20.110;2022-11-21T03:19:58;37.17;;;16.70;;
76463;SDS011;65301;46.666;20.110;2022-11-21T03:23:00;35.42;;;16.58;;
76463;SDS011;65301;46.666;20.110;2022-11-21T03:26:02;38.23;;;17.30;;
76463;SDS011;65301;46.666;20.110;2022-11-21T03:29:04;31.53;;;16.17;;
76463;SDS011;65301;46.666;20.110;2022-11-21T03:32:05;38.10;;;17.42;;
76463;SDS011;65301;46.666;20.110;2022-11-21T03:35:07;34.88;;;17.02;;
76463;SDS011;65301;46.666;20.110;2022-11-21T03:38:09;35.20;;;15.48;;
76463;SDS011;65301;46.666;20.110;2022-11-21T03:41:10;34.73;;;16.67;;
76463;SDS011;65301;46.666;20.110;2022-11-21T03:44:31;34.13;;;15.50;;
76463;SDS011;65301;46.666;20.110;2022-11-21T03:47:32;35.03;;;17.02;;
76463;SDS011;65301;46.666;20.110;2022-11-21T03:50:34;29.05;;;15.35;;
76463;SDS011;65301;46.666;20.110;2022-11-21T03:53:36;30.73;;;15.68;;
76463;SDS011;65301;46.666;20.110;2022-11-21T03:56:37;37.47;;;16.03;;
76463;SDS011;65301;46.666;20.110;2022-11-21T03:59:41;36.10;;;16.13;;
76463;SDS011;65301;46.666;20.110;2022-11-21T04:02:43;30.50;;;15.38;;
76463;SDS011;65301;46.666;20.110;2022-11-21T04:05:45;30.67;;;14.75;;
76463;SDS011;65301;46.666;20.110;2022-11-21T04:08:46;34.38;;;17.45;;
76463;SDS011;65301;46.666;20.110;2022-11-21T04:11:49;38.13;;;17.70;;
76463;SDS011;65301;46.666;20.110;2022-11-21T04:14:51;34.73;;;15.63;;
76463;SDS011;65301;46.666;20.110;2022-11-21T04:17:52;31.63;;;15.77;;
76463;SDS011;65301;46.666;20.110;2022-11-21T04:20:57;31.63;;;15.25;;
76463;SDS011;65301;46.666;20.110;2022-11-21T04:24:03;33.25;;;15.95;;
76463;SDS011;65301;46.666;20.110;2022-11-21T04:27:05;31.97;;;15.17;;
76463;SDS011;65301;46.666;20.110;2022-11-21T04:30:06;33.53;;;15.47;;
76463;SDS011;65301;46.666;20.110;2022-11-21T04:33:09;30.38;;;15.05;;
76463;SDS011;65301;46.666;20.110;2022-11-21T04:36:14;31.33;;;14.27;;
76463;SDS011;65301;46.666;20.110;2022-11-21T04:39:16;32.55;;;14.48;;
76463;SDS011;65301;46.666;20.110;2022-11-21T04:42:17;34.20;;;16.17;;
76463;SDS011;65301;46.666;20.110;2022-11-21T04:45:19;37.23;;;17.47;;
76463;SDS011;65301;46.666;20.110;2022-11-21T04:48:21;32.70;;;14.95;;
76463;SDS011;65301;46.666;20.110;2022-11-21T04:51:22;38.50;;;16.52;;
76463;SDS011;65301;46.666;20.110;2022-11-21T04:54:24;34.25;;;16.88;;
76463;SDS011;65301;46.666;20.110;2022-11-21T04:57:27;34.67;;;16.17;;
76463;SDS011;65301;46.666;20.110;2022-11-21T05:00:29;33.13;;;15.53;;
76463;SDS011;65301;46.666;20.110;2022-11-21T05:03:30;34.17;;;17.05;;
76463;SDS011;65301;46.666;20.110;2022-11-21T05:06:32;38.08;;;17.35;;
76463;SDS011;65301;46.666;20.110;2022-11-21T05:09:34;32.78;;;15.70;;
76463;SDS011;65301;46.666;20.110;2022-11-21T05:12:35;39.17;;;17.60;;
76463;SDS011;65301;46.666;20.110;2022-11-21T05:15:55;35.07;;;16.00;;
76463;SDS011;65301;46.666;20.110;2022-11-21T05:18:57;34.35;;;16.40;;
76463;SDS011;65301;46.666;20.110;2022-11-21T05:21:59;36.08;;;16.83;;
76463;SDS011;65301;46.666;20.110;2022-11-21T05:25:01;37.72;;;17.48;;
76463;SDS011;65301;46.666;20.110;2022-11-21T05:28:02;35.87;;;17.47;;
76463;SDS011;65301;46.666;20.110;2022-11-21T05:31:04;36.37;;;16.93;;
76463;SDS011;65301;46.666;20.110;2022-11-21T05:34:08;34.83;;;17.38;;
76463;SDS011;65301;46.666;20.110;2022-11-21T05:37:10;37.78;;;17.05;;
76463;SDS011;65301;46.666;20.110;2022-11-21T05:40:11;28.30;;;15.05;;
76463;SDS011;65301;46.666;20.110;2022-11-21T05:43:13;33.07;;;15.00;;
76463;SDS011;65301;46.666;20.110;2022-11-21T05:46:33;32.23;;;16.17;;
76463;SDS011;65301;46.666;20.110;2022-11-21T05:49:35;34.17;;;16.30;;
76463;SDS011;65301;46.666;20.110;2022-11-21T05:52:37;32.65;;;15.63;;
76463;SDS011;65301;46.666;20.110;2022-11-21T05:55:39;39.33;;;16.63;;
76463;SDS011;65301;46.666;20.110;2022-11-21T05:58:40;30.27;;;16.27;;
76463;SDS011;65301;46.666;20.110;2022-11-21T06:01:42;39.00;;;16.73;;
76463;SDS011;65301;46.666;20.110;2022-11-21T06:05:03;34.60;;;16.33;;
76463;SDS011;65301;46.666;20.110;2022-11-21T06:08:05;33.92;;;17.17;;
76463;SDS011;65301;46.666;20.110;2022-11-21T06:11:07;40.22;;;17.35;;
76463;SDS011;65301;46.666;20.110;2022-11-21T06:14:10;35.87;;;16.97;;
76463;SDS011;65301;46.666;20.110;2022-11-21T06:17:12;37.43;;;16.20;;
76463;SDS011;65301;46.666;20.110;2022-11-21T06:20:14;35.15;;;17.33;;
76463;SDS011;65301;46.666;20.110;2022-11-21T06:23:15;39.85;;;18.52;;
76463;SDS011;65301;46.666;20.110;2022-11-21T06:26:19;36.75;;;17.70;;
76463;SDS011;65301;46.666;20.110;2022-11-21T06:29:22;34.23;;;17.30;;
76463;SDS011;65301;46.666;20.110;2022-11-21T06:32:24;38.83;;;17.27;;
76463;SDS011;65301;46.666;20.110;2022-11-21T06:35:26;37.15;;;17.17;;
76463;SDS011;65301;46.666;20.110;2022-11-21T06:38:27;37.00;;;17.13;;
76463;SDS011;65301;46.666;20.110;2022-11-21T06:41:29;34.67;;;17.75;;
76463;SDS011;65301;46.666;20.110;2022-11-21T06:44:32;49.07;;;21.07;;
76463;SDS011;65301;46.666;20.110;2022-11-21T06:47:34;38.33;;;18.37;;
76463;SDS011;65301;46.666;20.110;2022-11-21T06:50:35;41.05;;;20.08;;
76463;SDS011;65301;46.666;20.110;2022-11-21T06:53:38;41.88;;;19.05;;
76463;SDS011;65301;46.666;20.110;2022-11-21T06:56:40;37.67;;;18.70;;
76463;SDS011;65301;46.666;20.110;2022-11-21T06:59:42;41.07;;;19.50;;
76463;SDS011;65301;46.666;20.110;2022-11-21T07:02:44;37.10;;;18.43;;
76463;SDS011;65301;46.666;20.110;2022-11-21T07:05:46;39.88;;;19.55;;
76463;SDS011;65301;46.666;20.110;2022-11-21T07:08:51;39.13;;;18.80;;
76463;SDS011;65301;46.666;20.110;2022-11-21T07:12:15;41.45;;;20.40;;
76463;SDS011;65301;46.666;20.110;2022-11-21T07:15:44;41.70;;;19.50;;
76463;SDS011;65301;46.666;20.110;2022-11-21T07:18:46;41.60;;;20.43;;
76463;SDS011;65301;46.666;20.110;2022-11-21T07:21:51;45.97;;;21.23;;
76463;SDS011;65301;46.666;20.110;2022-11-21T07:24:53;41.47;;;20.50;;
76463;SDS011;65301;46.666;20.110;2022-11-21T07:27:58;42.00;;;19.73;;
76463;SDS011;65301;46.666;20.110;2022-11-21T07:31:01;41.63;;;19.50;;
76463;SDS011;65301;46.666;20.110;2022-11-21T07:34:10;41.87;;;20.17;;
76463;SDS011;65301;46.666;20.110;2022-11-21T07:37:12;44.42;;;19.70;;
76463;SDS011;65301;46.666;20.110;2022-11-21T07:40:14;41.03;;;20.30;;
76463;SDS011;65301;46.666;20.110;2022-11-21T07:43:15;42.00;;;19.65;;
76463;SDS011;65301;46.666;20.110;2022-11-21T07:46:17;39.37;;;19.13;;
76463;SDS011;65301;46.666;20.110;2022-11-21T07:49:18;40.57;;;19.27;;
76463;SDS011;65301;46.666;20.110;2022-11-21T07:52:20;40.45;;;18.80;;
76463;SDS011;65301;46.666;20.110;2022-11-21T07:55:22;41.10;;;19.90;;
76463;SDS011;65301;46.666;20.110;2022-11-21T07:58:24;38.42;;;18.08;;
76463;SDS011;65301;46.666;20.110;2022-11-21T08:01:25;40.73;;;20.37;;
76463;SDS011;65301;46.666;20.110;2022-11-21T08:04:27;37.53;;;18.57;;
76463;SDS011;65301;46.666;20.110;2022-11-21T08:07:29;41.50;;;20.92;;
76463;SDS011;65301;46.666;20.110;2022-11-21T08:10:31;38.83;;;19.65;;
76463;SDS011;65301;46.666;20.110;2022-11-21T08:13:33;40.97;;;19.27;;
76463;SDS011;65301;46.666;20.110;2022-11-21T08:16:35;37.50;;;18.93;;
76463;SDS011;65301;46.666;20.110;2022-11-21T08:19:37;35.67;;;19.13;;
76463;SDS011;65301;46.666;20.110;2022-11-21T08:22:39;38.08;;;19.48;;
76463;SDS011;65301;46.666;20.110;2022-11-21T08:25:41;45.15;;;22.02;;
76463;SDS011;65301;46.666;20.110;2022-11-21T08:28:44;42.45;;;19.98;;
76463;SDS011;65301;46.666;20.110;2022-11-21T08:31:45;38.30;;;18.90;;
76463;SDS011;65301;46.666;20.110;2022-11-21T08:34:47;39.87;;;19.80;;
76463;SDS011;65301;46.666;20.110;2022-11-21T08:37:53;38.80;;;19.52;;
76463;SDS011;65301;46.666;20.110;2022-11-21T08:40:56;38.78;;;19.75;;
76463;SDS011;65301;46.666;20.110;2022-11-21T08:44:23;35.30;;;19.02;;
76463;SDS011;65301;46.666;20.110;2022-11-21T08:47:25;37.27;;;19.83;;
76463;SDS011;65301;46.666;20.110;2022-11-21T08:50:27;37.63;;;20.53;;
76463;SDS011;65301;46.666;20.110;2022-11-21T08:53:29;34.42;;;19.20;;
76463;SDS011;65301;46.666;20.110;2022-11-21T08:56:30;35.72;;;19.02;;
76463;SDS011;65301;46.666;20.110;2022-11-21T08:59:34;41.35;;;20.67;;
76463;SDS011;65301;46.666;20.110;2022-11-21T09:02:36;40.53;;;21.63;;
76463;SDS011;65301;46.666;20.110;2022-11-21T09:05:37;40.57;;;20.87;;
76463;SDS011;65301;46.666;20.110;2022-11-21T09:08:39;41.22;;;21.05;;
76463;SDS011;65301;46.666;20.110;2022-11-21T09:11:40;38.97;;;21.30;;
76463;SDS011;65301;46.666;20.110;2022-11-21T09:14:43;40.08;;;20.38;;
76463;SDS011;65301;46.666;20.110;2022-11-21T09:18:03;37.33;;;18.67;;
76463;SDS011;65301;46.666;20.110;2022-11-21T09:21:05;39.33;;;21.10;;
76463;SDS011;65301;46.666;20.110;2022-11-21T09:24:07;31.13;;;16.65;;
76463;SDS011;65301;46.666;20.110;2022-11-21T09:27:09;33.15;;;18.42;;
76463;SDS011;65301;46.666;20.110;2022-11-21T09:30:10;27.65;;;15.63;;
76463;SDS011;65301;46.666;20.110;2022-11-21T09:33:15;36.10;;;17.80;;
76463;SDS011;65301;46.666;20.110;2022-11-21T09:36:17;42.10;;;21.30;;
76463;SDS011;65301;46.666;20.110;2022-11-21T09:39:19;34.65;;;19.20;;
76463;SDS011;65301;46.666;20.110;2022-11-21T09:42:28;38.15;;;19.17;;
76463;SDS011;65301;46.666;20.110;2022-11-21T09:45:56;37.97;;;19.05;;
76463;SDS011;65301;46.666;20.110;2022-11-21T09:49:04;48.77;;;23.13;;
76463;SDS011;65301;46.666;20.110;2022-11-21T09:52:07;49.67;;;24.33;;
76463;SDS011;65301;46.666;20.110;2022-11-21T10:01:42;55.50;;;25.15;;
76463;SDS011;65301;46.666;20.110;2022-11-21T10:04:44;52.93;;;23.93;;
76463;SDS011;65301;46.666;20.110;2022-11-21T10:07:47;42.97;;;20.80;;
76463;SDS011;65301;46.666;20.110;2022-11-21T10:10:54;46.90;;;20.60;;
76463;SDS011;65301;46.666;20.110;2022-11-21T10:17:29;43.53;;;20.33;;
76463;SDS011;65301;46.666;20.110;2022-11-21T10:27:00;42.53;;;20.42;;
76463;SDS011;65301;46.666;20.110;2022-11-21T10:30:05;51.78;;;24.50;;
76463;SDS011;65301;46.666;20.110;2022-11-21T10:33:17;55.88;;;24.70;;
76463;SDS011;65301;46.666;20.110;2022-11-21T10:36:30;53.03;;;23.60;;
76463;SDS011;65301;46.666;20.110;2022-11-21T10:39:38;52.43;;;23.37;;
76463;SDS011;65301;46.666;20.110;2022-11-21T10:42:59;50.92;;;23.02;;
76463;SDS011;65301;46.666;20.110;2022-11-21T10:46:26;47.45;;;21.73;;
76463;SDS011;65301;46.666;20.110;2022-11-21T10:49:29;45.60;;;20.77;;
76463;SDS011;65301;46.666;20.110;2022-11-21T10:52:44;42.43;;;18.67;;
76463;SDS011;65301;46.666;20.110;2022-11-21T10:55:57;36.30;;;16.97;;
76463;SDS011;65301;46.666;20.110;2022-11-21T10:59:10;30.67;;;14.98;;
76463;SDS011;65301;46.666;20.110;2022-11-21T11:08:24;21.43;;;11.57;;
76463;SDS011;65301;46.666;20.110;2022-11-21T11:11:28;18.97;;;10.53;;
76463;SDS011;65301;46.666;20.110;2022-11-21T11:14:30;19.10;;;10.40;;
76463;SDS011;65301;46.666;20.110;2022-11-21T11:17:33;16.90;;;10.10;;
76463;SDS011;65301;46.666;20.110;2022-11-21T11:28:51;15.50;;;9.43;;
76463;SDS011;65301;46.666;20.110;2022-11-21T11:38:13;17.50;;;9.98;;
76463;SDS011;65301;46.666;20.110;2022-11-21T11:41:18;15.20;;;9.17;;
76463;SDS011;65301;46.666;20.110;2022-11-21T11:48:19;11.40;;;7.43;;
76463;SDS011;65301;46.666;20.110;2022-11-21T11:51:22;11.70;;;8.10;;
76463;SDS011;65301;46.666;20.110;2022-11-21T11:54:33;11.80;;;8.10;;
76463;SDS011;65301;46.666;20.110;2022-11-21T11:57:45;11.70;;;7.70;;
76463;SDS011;65301;46.666;20.110;2022-11-21T12:00:53;10.20;;;7.43;;
76463;SDS011;65301;46.666;20.110;2022-11-21T12:04:14;10.32;;;7.38;;
76463;SDS011;65301;46.666;20.110;2022-11-21T12:07:21;10.63;;;7.10;;
76463;SDS011;65301;46.666;20.110;2022-11-21T12:11:15;13.57;;;8.30;;
76463;SDS011;65301;46.666;20.110;2022-11-21T12:14:53;11.97;;;7.40;;
76463;SDS011;65301;46.666;20.110;2022-11-21T12:21:19;14.10;;;8.55;;
76463;SDS011;65301;46.666;20.110;2022-11-21T12:24:23;15.70;;;9.27;;
76463;SDS011;65301;46.666;20.110;2022-11-21T12:27:30;13.00;;;8.60;;
76463;SDS011;65301;46.666;20.110;2022-11-21T12:33:38;15.27;;;9.80;;
76463;SDS011;65301;46.666;20.110;2022-11-21T12:37:01;15.07;;;9.65;;
76463;SDS011;65301;46.666;20.110;2022-11-21T12:40:14;11.60;;;8.88;;
76463;SDS011;65301;46.666;20.110;2022-11-21T12:43:39;12.63;;;9.05;;
76463;SDS011;65301;46.666;20.110;2022-11-21T12:50:20;13.73;;;9.10;;
76463;SDS011;65301;46.666;20.110;2022-11-21T12:53:49;15.05;;;9.90;;
76463;SDS011;65301;46.666;20.110;2022-11-21T12:57:48;17.75;;;11.32;;
76463;SDS011;65301;46.666;20.110;2022-11-21T13:01:01;19.35;;;11.48;;
76463;SDS011;65301;46.666;20.110;2022-11-21T13:04:26;16.00;;;10.37;;
76463;SDS011;65301;46.666;20.110;2022-11-21T13:07:30;16.10;;;10.07;;
76463;SDS011;65301;46.666;20.110;2022-11-21T13:10:33;14.68;;;9.85;;
76463;SDS011;65301;46.666;20.110;2022-11-21T13:13:35;15.80;;;9.90;;
76463;SDS011;65301;46.666;20.110;2022-11-21T13:16:40;18.95;;;9.55;;
76463;SDS011;65301;46.666;20.110;2022-11-21T13:19:53;15.77;;;9.73;;
76463;SDS011;65301;46.666;20.110;2022-11-21T13:22:59;15.77;;;9.53;;
76463;SDS011;65301;46.666;20.110;2022-11-21T13:29:26;20.33;;;12.02;;
76463;SDS011;65301;46.666;20.110;2022-11-21T13:42:00;17.60;;;11.40;;
76463;SDS011;65301;46.666;20.110;2022-11-21T13:45:37;15.40;;;11.13;;
76463;SDS011;65301;46.666;20.110;2022-11-21T13:48:59;16.00;;;10.70;;
76463;SDS011;65301;46.666;20.110;2022-11-21T13:52:12;16.57;;;9.87;;
76463;SDS011;65301;46.666;20.110;2022-11-21T14:12:33;19.13;;;11.50;;
76463;SDS011;65301;46.666;20.110;2022-11-21T14:18:58;14.15;;;10.18;;
76463;SDS011;65301;46.666;20.110;2022-11-21T14:22:01;14.18;;;9.93;;
76463;SDS011;65301;46.666;20.110;2022-11-21T14:25:06;17.70;;;10.90;;
76463;SDS011;65301;46.666;20.110;2022-11-21T14:28:12;17.97;;;11.13;;
76463;SDS011;65301;46.666;20.110;2022-11-21T14:31:17;14.57;;;9.90;;
76463;SDS011;65301;46.666;20.110;2022-11-21T14:34:23;16.52;;;11.57;;
76463;SDS011;65301;46.666;20.110;2022-11-21T14:37:33;15.43;;;9.75;;
76463;SDS011;65301;46.666;20.110;2022-11-21T14:40:50;19.90;;;10.97;;
76463;SDS011;65301;46.666;20.110;2022-11-21T14:44:16;21.73;;;12.40;;
76463;SDS011;65301;46.666;20.110;2022-11-21T14:47:20;26.38;;;14.55;;
76463;SDS011;65301;46.666;20.110;2022-11-21T14:50:28;25.25;;;13.90;;
76463;SDS011;65301;46.666;20.110;2022-11-21T14:53:31;24.27;;;13.27;;
76463;SDS011;65301;46.666;20.110;2022-11-21T14:56:33;20.97;;;11.87;;
76463;SDS011;65301;46.666;20.110;2022-11-21T14:59:39;15.80;;;10.03;;
76463;SDS011;65301;46.666;20.110;2022-11-21T15:02:42;13.15;;;9.88;;
76463;SDS011;65301;46.666;20.110;2022-11-21T15:05:43;14.00;;;9.30;;
76463;SDS011;65301;46.666;20.110;2022-11-21T15:09:04;11.90;;;8.90;;
76463;SDS011;65301;46.666;20.110;2022-11-21T15:12:30;15.87;;;9.63;;
76463;SDS011;65301;46.666;20.110;2022-11-21T15:15:47;14.77;;;9.87;;
76463;SDS011;65301;46.666;20.110;2022-11-21T15:18:51;18.23;;;10.60;;
76463;SDS011;65301;46.666;20.110;2022-11-21T15:21:54;18.10;;;10.50;;
76463;SDS011;65301;46.666;20.110;2022-11-21T15:25:59;18.63;;;11.75;;
76463;SDS011;65301;46.666;20.110;2022-11-21T15:28:30;17.53;;;10.37;;
76463;SDS011;65301;46.666;20.110;2022-11-21T15:31:32;15.57;;;9.67;;
76463;SDS011;65301;46.666;20.110;2022-11-21T15:34:34;15.38;;;10.07;;
76463;SDS011;65301;46.666;20.110;2022-11-21T15:37:56;14.45;;;9.32;;
76463;SDS011;65301;46.666;20.110;2022-11-21T15:40:59;13.77;;;8.95;;
76463;SDS011;65301;46.666;20.110;2022-11-21T15:47:07;17.30;;;11.37;;
76463;SDS011;65301;46.666;20.110;2022-11-21T15:50:09;16.85;;;10.90;;
76463;SDS011;65301;46.666;20.110;2022-11-21T15:53:16;18.15;;;10.05;;
76463;SDS011;65301;46.666;20.110;2022-11-21T15:56:19;19.58;;;10.60;;
76463;SDS011;65301;46.666;20.110;2022-11-21T15:59:23;22.03;;;11.37;;
76463;SDS011;65301;46.666;20.110;2022-11-21T16:02:25;17.57;;;9.87;;
76463;SDS011;65301;46.666;20.110;2022-11-21T16:05:27;17.70;;;9.80;;
76463;SDS011;65301;46.666;20.110;2022-11-21T16:08:29;16.08;;;10.00;;
76463;SDS011;65301;46.666;20.110;2022-11-21T16:11:32;46.45;;;24.70;;
76463;SDS011;65301;46.666;20.110;2022-11-21T16:14:35;58.07;;;32.70;;
76463;SDS011;65301;46.666;20.110;2022-11-21T16:17:36;42.27;;;23.70;;
76463;SDS011;65301;46.666;20.110;2022-11-21T16:20:39;49.13;;;27.05;;
76463;SDS011;65301;46.666;20.110;2022-11-21T16:23:41;55.95;;;29.98;;
76463;SDS011;65301;46.666;20.110;2022-11-21T16:26:43;73.20;;;35.78;;
76463;SDS011;65301;46.666;20.110;2022-11-21T16:29:45;47.67;;;25.50;;
76463;SDS011;65301;46.666;20.110;2022-11-21T16:32:47;46.53;;;26.20;;
76463;SDS011;65301;46.666;20.110;2022-11-21T16:35:51;52.35;;;28.02;;
76463;SDS011;65301;46.666;20.110;2022-11-21T16:38:57;58.63;;;29.75;;
76463;SDS011;65301;46.666;20.110;2022-11-21T16:42:08;46.65;;;23.23;;
76463;SDS011;65301;46.666;20.110;2022-11-21T16:45:11;55.77;;;26.30;;
76463;SDS011;65301;46.666;20.110;2022-11-21T16:48:13;43.47;;;23.73;;
76463;SDS011;65301;46.666;20.110;2022-11-21T16:51:16;52.00;;;24.83;;
76463;SDS011;65301;46.666;20.110;2022-11-21T16:54:20;46.47;;;24.25;;
76463;SDS011;65301;46.666;20.110;2022-11-21T16:57:22;46.22;;;23.33;;
76463;SDS011;65301;46.666;20.110;2022-11-21T17:00:24;44.80;;;22.17;;
76463;SDS011;65301;46.666;20.110;2022-11-21T17:03:27;44.33;;;23.87;;
76463;SDS011;65301;46.666;20.110;2022-11-21T17:06:29;49.15;;;26.35;;
76463;SDS011;65301;46.666;20.110;2022-11-21T17:09:31;62.20;;;31.65;;
76463;SDS011;65301;46.666;20.110;2022-11-21T17:12:34;58.30;;;30.80;;
76463;SDS011;65301;46.666;20.110;2022-11-21T17:15:39;53.53;;;27.90;;
76463;SDS011;65301;46.666;20.110;2022-11-21T17:18:42;55.80;;;28.57;;
76463;SDS011;65301;46.666;20.110;2022-11-21T17:21:44;58.45;;;30.77;;
76463;SDS011;65301;46.666;20.110;2022-11-21T17:24:46;63.40;;;33.92;;
76463;SDS011;65301;46.666;20.110;2022-11-21T17:27:48;62.85;;;33.85;;
76463;SDS011;65301;46.666;20.110;2022-11-21T17:30:50;69.90;;;34.97;;
76463;SDS011;65301;46.666;20.110;2022-11-21T17:33:52;63.43;;;33.07;;
76463;SDS011;65301;46.666;20.110;2022-11-21T17:36:56;67.75;;;33.17;;
76463;SDS011;65301;46.666;20.110;2022-11-21T17:39:58;83.38;;;39.58;;
76463;SDS011;65301;46.666;20.110;2022-11-21T17:43:00;76.70;;;40.47;;
76463;SDS011;65301;46.666;20.110;2022-11-21T17:46:06;73.30;;;38.17;;
76463;SDS011;65301;46.666;20.110;2022-11-21T17:49:11;72.43;;;35.93;;
76463;SDS011;65301;46.666;20.110;2022-11-21T17:52:14;69.15;;;34.00;;
76463;SDS011;65301;46.666;20.110;2022-11-21T17:55:16;72.45;;;33.78;;
76463;SDS011;65301;46.666;20.110;2022-11-21T17:58:18;68.45;;;33.92;;
76463;SDS011;65301;46.666;20.110;2022-11-21T18:01:20;68.87;;;35.50;;
76463;SDS011;65301;46.666;20.110;2022-11-21T18:04:22;70.20;;;34.07;;
76463;SDS011;65301;46.666;20.110;2022-11-21T18:07:25;72.97;;;36.13;;
76463;SDS011;65301;46.666;20.110;2022-11-21T18:10:27;79.15;;;36.95;;
76463;SDS011;65301;46.666;20.110;2022-11-21T18:13:44;83.10;;;36.28;;
76463;SDS011;65301;46.666;20.110;2022-11-21T18:16:46;77.47;;;37.63;;
76463;SDS011;65301;46.666;20.110;2022-11-21T18:19:53;92.93;;;41.40;;
76463;SDS011;65301;46.666;20.110;2022-11-21T18:22:55;89.03;;;38.13;;
76463;SDS011;65301;46.666;20.110;2022-11-21T18:26:01;108.25;;;42.17;;
76463;SDS011;65301;46.666;20.110;2022-11-21T18:29:06;94.50;;;36.80;;
76463;SDS011;65301;46.666;20.110;2022-11-21T18:32:28;74.70;;;33.33;;
76463;SDS011;65301;46.666;20.110;2022-11-21T18:35:30;79.93;;;34.10;;
76463;SDS011;65301;46.666;20.110;2022-11-21T18:38:32;78.63;;;35.35;;
76463;SDS011;65301;46.666;20.110;2022-11-21T18:41:56;73.25;;;32.35;;
76463;SDS011;65301;46.666;20.110;2022-11-21T18:44:58;68.88;;;32.22;;
76463;SDS011;65301;46.666;20.110;2022-11-21T18:48:00;68.93;;;32.43;;
76463;SDS011;65301;46.666;20.110;2022-11-21T18:51:11;76.43;;;34.07;;
76463;SDS011;65301;46.666;20.110;2022-11-21T18:54:16;83.80;;;34.70;;
76463;SDS011;65301;46.666;20.110;2022-11-21T18:57:17;71.80;;;33.00;;
76463;SDS011;65301;46.666;20.110;2022-11-21T19:00:19;119.97;;;54.83;;
76463;SDS011;65301;46.666;20.110;2022-11-21T19:03:22;76.83;;;35.90;;
76463;SDS011;65301;46.666;20.110;2022-11-21T19:06:25;78.80;;;36.07;;
76463;SDS011;65301;46.666;20.110;2022-11-21T19:09:27;93.80;;;41.85;;
76463;SDS011;65301;46.666;20.110;2022-11-21T19:12:34;103.35;;;42.78;;
76463;SDS011;65301;46.666;20.110;2022-11-21T19:15:40;108.70;;;45.90;;
76463;SDS011;65301;46.666;20.110;2022-11-21T19:18:43;114.93;;;49.17;;
76463;SDS011;65301;46.666;20.110;2022-11-21T19:22:06;117.20;;;46.80;;